createdAt,value
2022-09-04T00:00:10.667Z,99.90
2022-09-04T00:03:05.884Z,99.90
2022-09-04T00:05:39.432Z,99.90
2022-09-04T00:08:32.186Z,99.90
2022-09-04T00:11:06.524Z,99.90
2022-09-04T00:13:42.876Z,99.90
2022-09-04T00:16:20.740Z,99.90
2022-09-04T00:18:58.249Z,99.90
2022-09-04T00:21:36.242Z,99.90
2022-09-04T00:24:10.653Z,99.90
2022-09-04T00:26:49.378Z,99.90
2022-09-04T00:29:27.614Z,99.90
2022-09-04T00:32:07.320Z,99.90
2022-09-04T00:34:50.463Z,99.90
2022-09-04T00:37:25.428Z,99.90
2022-09-04T00:40:00.606Z,99.90
2022-09-04T00:42:56.309Z,99.90
2022-09-04T00:45:39.522Z,99.90
2022-09-04T00:48:38.575Z,99.90
2022-09-04T00:51:25.871Z,99.90
2022-09-04T00:54:24.911Z,99.90
2022-09-04T00:57:34.923Z,99.90
2022-09-04T01:00:14.899Z,99.90
2022-09-04T01:03:09.351Z,99.90
2022-09-04T01:05:55.087Z,99.90
2022-09-04T01:08:41.478Z,99.90
2022-09-04T01:11:16.754Z,99.90
2022-09-04T01:13:55.456Z,99.90
2022-09-04T01:16:29.766Z,99.90
2022-09-04T01:19:06.495Z,99.90
2022-09-04T01:22:02.499Z,99.90
2022-09-04T01:25:03.884Z,99.90
2022-09-04T01:27:43.827Z,99.90
2022-09-04T01:30:16.515Z,99.90
2022-09-04T01:33:01.587Z,99.90
2022-09-04T01:35:37.151Z,99.90
2022-09-04T01:38:17.094Z,99.90
2022-09-04T01:40:51.033Z,99.90
2022-09-04T01:43:24.646Z,99.90
2022-09-04T01:46:26.283Z,99.90
2022-09-04T01:49:01.469Z,99.90
2022-09-04T01:51:42.518Z,99.90
2022-09-04T01:54:36.466Z,99.90
2022-09-04T01:57:17.613Z,99.90
2022-09-04T02:00:02.837Z,99.90
2022-09-04T02:02:42.974Z,99.90
2022-09-04T02:05:19.762Z,99.90
2022-09-04T02:07:55.858Z,99.90
2022-09-04T02:10:32.818Z,99.90
2022-09-04T02:13:15.426Z,99.90
2022-09-04T02:15:58.913Z,99.90
2022-09-04T02:18:46.094Z,99.90
2022-09-04T02:21:24.722Z,99.90
2022-09-04T02:24:02.722Z,99.90
2022-09-04T02:26:38.941Z,99.90
2022-09-04T02:29:17.014Z,99.90
2022-09-04T02:31:54.705Z,99.90
2022-09-04T02:34:31.403Z,99.90
2022-09-04T02:37:10.862Z,99.90
2022-09-04T02:39:52.933Z,99.90
2022-09-04T02:42:28.501Z,99.90
2022-09-04T02:45:10.346Z,99.90
2022-09-04T02:47:48.813Z,99.90
2022-09-04T02:50:32.921Z,99.90
2022-09-04T02:53:18.288Z,99.90
2022-09-04T02:56:14.403Z,99.90
2022-09-04T02:58:52.869Z,99.90
2022-09-04T03:01:28.524Z,99.90
2022-09-04T03:04:07.357Z,99.90
2022-09-04T03:06:52.582Z,99.90
2022-09-04T03:09:26.938Z,99.90
2022-09-04T03:12:02.207Z,99.90
2022-09-04T03:14:38.557Z,99.90
2022-09-04T03:17:14.926Z,99.90
2022-09-04T03:19:53.713Z,99.90
2022-09-04T03:22:28.830Z,99.90
2022-09-04T03:25:43.797Z,99.90
2022-09-04T03:28:21.593Z,99.90
2022-09-04T03:30:54.341Z,99.90
2022-09-04T03:33:30.329Z,99.90
2022-09-04T03:36:08.993Z,99.90
2022-09-04T03:38:46.147Z,99.90
2022-09-04T03:41:25.778Z,99.90
2022-09-04T03:44:10.109Z,99.90
2022-09-04T03:46:51.766Z,99.90
2022-09-04T03:49:34.550Z,99.90
2022-09-04T03:52:10.409Z,99.90
2022-09-04T03:54:59.823Z,99.90
2022-09-04T03:57:43.549Z,99.90
2022-09-04T04:00:18.509Z,99.90
2022-09-04T04:03:09.949Z,99.90
2022-09-04T04:05:54.366Z,99.90
2022-09-04T04:08:39.216Z,99.90
2022-09-04T04:11:25.889Z,99.90
2022-09-04T04:14:13.774Z,99.90
2022-09-04T04:16:56.223Z,99.90
2022-09-04T04:19:45.356Z,99.90
2022-09-04T04:22:36.540Z,99.90
2022-09-04T04:25:41.632Z,99.90
2022-09-04T04:28:26.005Z,99.90
2022-09-04T04:30:59.879Z,99.90
2022-09-04T04:33:52.342Z,99.90
2022-09-04T04:36:32.164Z,99.90
2022-09-04T04:39:13.409Z,99.90
2022-09-04T04:42:13.412Z,99.90
2022-09-04T04:45:30.577Z,99.90
2022-09-04T04:48:39.660Z,99.90
2022-09-04T04:51:21.476Z,99.90
2022-09-04T04:53:58.986Z,99.90
2022-09-04T04:56:33.447Z,99.90
2022-09-04T04:59:20.914Z,99.90
2022-09-04T05:02:05.009Z,99.90
2022-09-04T05:04:46.747Z,99.90
2022-09-04T05:07:27.347Z,99.90
2022-09-04T05:10:07.598Z,99.90
2022-09-04T05:12:55.968Z,99.90
2022-09-04T05:15:30.993Z,99.90
2022-09-04T05:18:09.448Z,99.90
2022-09-04T05:20:46.077Z,99.90
2022-09-04T05:23:28.905Z,99.90
2022-09-04T05:26:04.454Z,99.90
2022-09-04T05:28:42.371Z,99.90
2022-09-04T05:31:20.151Z,99.90
2022-09-04T05:34:01.381Z,99.90
2022-09-04T05:36:40.735Z,99.90
2022-09-04T05:39:18.098Z,99.90
2022-09-04T05:42:06.358Z,99.90
2022-09-04T05:44:48.896Z,99.90
2022-09-04T05:47:30.790Z,99.90
2022-09-04T05:50:21.515Z,99.90
2022-09-04T05:53:26.954Z,99.90
2022-09-04T05:56:26.434Z,99.90
2022-09-04T05:59:11.297Z,99.90
2022-09-04T06:02:05.051Z,99.90
2022-09-04T06:04:57.329Z,99.90
2022-09-04T06:07:39.233Z,99.90
2022-09-04T06:10:16.073Z,99.90
2022-09-04T06:13:12.029Z,99.90
2022-09-04T06:15:55.265Z,99.90
2022-09-04T06:19:01.521Z,99.90
2022-09-04T06:22:00.777Z,99.90
2022-09-04T06:24:51.938Z,99.90
2022-09-04T06:27:34.570Z,99.90
2022-09-04T06:30:10.481Z,99.90
2022-09-04T06:33:12.984Z,99.90
2022-09-04T06:35:57.141Z,99.90
2022-09-04T06:38:59.653Z,99.90
2022-09-04T06:41:49.196Z,99.90
2022-09-04T06:44:33.264Z,99.90
2022-09-04T06:47:15.214Z,99.90
2022-09-04T06:49:59.960Z,99.90
2022-09-04T06:52:39.751Z,99.90
2022-09-04T06:55:16.229Z,99.90
2022-09-04T06:58:03.032Z,99.90
2022-09-04T07:00:40.906Z,99.90
2022-09-04T07:03:36.963Z,99.90
2022-09-04T07:06:14.280Z,99.90
2022-09-04T07:08:57.271Z,99.90
2022-09-04T07:11:40.098Z,99.90
2022-09-04T07:14:36.997Z,99.90
2022-09-04T07:17:17.132Z,99.90
2022-09-04T07:20:15.583Z,99.90
2022-09-04T07:23:16.439Z,99.90
2022-09-04T07:25:52.569Z,99.90
2022-09-04T07:28:37.689Z,99.90
2022-09-04T07:31:14.044Z,99.90
2022-09-04T07:33:53.571Z,99.90
2022-09-04T07:36:33.099Z,99.90
2022-09-04T07:39:09.820Z,99.90
2022-09-04T07:41:48.562Z,99.90
2022-09-04T07:44:27.491Z,99.90
2022-09-04T07:47:14.175Z,99.90
2022-09-04T07:49:54.962Z,99.90
2022-09-04T07:52:40.510Z,99.90
2022-09-04T07:55:19.366Z,99.90
2022-09-04T07:58:08.249Z,99.90
2022-09-04T08:00:49.639Z,99.90
2022-09-04T08:03:37.799Z,99.90
2022-09-04T08:06:28.711Z,99.90
2022-09-04T08:09:18.058Z,99.90
2022-09-04T08:12:22.166Z,99.90
2022-09-04T08:14:56.168Z,99.90
2022-09-04T08:18:04.858Z,99.90
2022-09-04T08:20:47.010Z,99.90
2022-09-04T08:23:49.505Z,99.90
2022-09-04T08:26:29.656Z,99.90
2022-09-04T08:29:18.446Z,99.90
2022-09-04T08:31:58.898Z,99.90
2022-09-04T08:34:48.861Z,99.90
2022-09-04T08:37:44.669Z,99.90
2022-09-04T08:40:37.833Z,99.90
2022-09-04T08:43:36.448Z,99.90
2022-09-04T08:46:50.762Z,99.90
2022-09-04T08:50:12.740Z,99.90
2022-09-04T09:06:35.843Z,99.90
2022-09-04T09:09:45.852Z,98.90
2022-09-04T09:12:54.352Z,97.20
2022-09-04T09:15:51.453Z,93.60
2022-09-04T09:18:53.069Z,93.00
2022-09-04T09:21:45.111Z,88.50
2022-09-04T09:25:08.379Z,88.50
2022-09-04T09:28:24.310Z,82.00
2022-09-04T09:31:38.955Z,77.60
2022-09-04T09:34:48.147Z,73.10
2022-09-04T09:38:16.667Z,75.40
2022-09-04T09:41:23.269Z,74.60
2022-09-04T09:44:33.926Z,71.80
2022-09-04T09:47:41.079Z,69.20
2022-09-04T09:50:40.176Z,70.50
2022-09-04T09:53:46.848Z,68.50
2022-09-04T09:56:59.870Z,67.60
2022-09-04T10:00:08.555Z,64.80
2022-09-04T10:03:18.893Z,66.10
2022-09-04T10:06:24.561Z,62.80
2022-09-04T10:09:47.195Z,61.90
2022-09-04T10:13:02.049Z,60.80
2022-09-04T10:16:01.859Z,62.00
2022-09-04T10:18:59.669Z,63.30
2022-09-04T10:22:11.873Z,59.60
2022-09-04T10:25:32.996Z,59.60
2022-09-04T10:28:31.608Z,57.10
2022-09-04T10:31:28.956Z,58.20
2022-09-04T10:34:24.648Z,56.40
2022-09-04T10:37:16.900Z,57.70
2022-09-04T10:40:21.164Z,54.10
2022-09-04T10:43:11.084Z,54.50
2022-09-04T10:45:47.984Z,54.20
2022-09-04T10:48:59.140Z,55.50
2022-09-04T10:51:55.299Z,54.90
2022-09-04T10:55:07.208Z,52.40
2022-09-04T10:58:18.959Z,54.70
2022-09-04T11:01:13.957Z,55.40
2022-09-04T11:04:02.468Z,56.00
2022-09-04T11:07:10.839Z,53.90
2022-09-04T11:10:10.823Z,54.00
2022-09-04T11:13:05.008Z,53.30
2022-09-04T11:16:08.762Z,52.20
2022-09-04T11:19:13.599Z,52.70
2022-09-04T11:22:21.458Z,52.00
2022-09-04T11:25:38.214Z,55.30
2022-09-04T11:28:56.850Z,55.00
2022-09-04T11:32:04.108Z,54.10
2022-09-04T11:35:16.214Z,54.50
2022-09-04T11:38:10.262Z,52.20
2022-09-04T11:41:23.911Z,53.20
2022-09-04T11:44:19.174Z,55.50
2022-09-04T11:47:28.473Z,52.70
2022-09-04T11:50:35.234Z,51.90
2022-09-04T11:53:25.863Z,52.90
2022-09-04T11:56:35.618Z,53.40
2022-09-04T11:59:18.691Z,52.10
2022-09-04T12:02:23.009Z,51.00
2022-09-04T12:05:12.413Z,51.40
2022-09-04T12:08:05.618Z,52.30
2022-09-04T12:10:51.961Z,51.00
2022-09-04T12:13:53.278Z,49.40
2022-09-04T12:16:57.279Z,50.60
2022-09-04T12:20:25.605Z,50.40
2022-09-04T12:23:38.738Z,51.60
2022-09-04T12:26:36.293Z,52.80
2022-09-04T12:29:56.365Z,56.50
2022-09-04T12:33:14.129Z,55.40
2022-09-04T12:36:15.339Z,53.90
2022-09-04T12:39:17.011Z,53.20
2022-09-04T12:42:00.249Z,51.30
2022-09-04T12:44:40.646Z,51.00
2022-09-04T12:47:24.825Z,52.90
2022-09-04T12:50:12.681Z,53.70
2022-09-04T12:52:59.653Z,50.40
2022-09-04T12:55:40.449Z,53.10
2022-09-04T12:58:25.240Z,50.10
2022-09-04T13:01:10.984Z,50.60
2022-09-04T13:03:50.384Z,53.20
2022-09-04T13:06:31.816Z,54.60
2022-09-04T13:09:17.553Z,52.70
2022-09-04T13:12:01.144Z,55.80
2022-09-04T13:14:58.532Z,54.90
2022-09-04T13:17:38.753Z,52.70
2022-09-04T13:20:23.316Z,55.70
2022-09-04T13:23:19.293Z,56.70
2022-09-04T13:26:05.893Z,55.30
2022-09-04T13:28:51.428Z,56.40
2022-09-04T13:31:53.814Z,54.90
2022-09-04T13:34:40.707Z,55.50
2022-09-04T13:37:24.197Z,56.20
2022-09-04T13:40:28.263Z,58.10
2022-09-04T13:43:33.043Z,57.90
2022-09-04T13:46:13.124Z,57.80
2022-09-04T13:48:59.595Z,57.90
2022-09-04T13:51:34.947Z,58.30
2022-09-04T13:54:23.287Z,56.10
2022-09-04T13:56:59.040Z,56.90
2022-09-04T13:59:30.259Z,56.90
2022-09-04T14:02:07.511Z,55.50
2022-09-04T14:04:53.923Z,57.50
2022-09-04T14:07:33.407Z,59.70
2022-09-04T14:10:13.373Z,60.20
2022-09-04T14:13:21.118Z,62.90
2022-09-04T14:16:04.675Z,60.50
2022-09-04T14:18:50.458Z,60.40
2022-09-04T14:21:36.736Z,61.40
2022-09-04T14:24:27.595Z,61.00
2022-09-04T14:27:11.373Z,60.80
2022-09-04T14:30:02.458Z,60.10
2022-09-04T14:32:41.451Z,58.20
2022-09-04T14:35:22.357Z,58.40
2022-09-04T14:38:08.403Z,61.90
2022-09-04T14:40:46.406Z,64.00
2022-09-04T14:43:24.458Z,62.90
2022-09-04T14:46:08.170Z,63.30
2022-09-04T14:48:41.770Z,66.80
2022-09-04T14:51:35.827Z,66.10
2022-09-04T14:54:06.954Z,68.40
2022-09-04T14:56:44.471Z,67.50
2022-09-04T14:59:21.013Z,67.90
2022-09-04T15:02:14.495Z,66.10
2022-09-04T15:04:50.607Z,69.70
2022-09-04T15:07:41.927Z,69.30
2022-09-04T15:10:24.821Z,70.30
2022-09-04T15:13:35.346Z,70.30
2022-09-04T15:16:19.800Z,68.40
2022-09-04T15:18:57.781Z,70.10
2022-09-04T15:21:35.905Z,69.70
2022-09-04T15:24:19.151Z,70.40
2022-09-04T15:26:57.639Z,72.60
2022-09-04T15:29:36.469Z,72.30
2022-09-04T15:32:14.113Z,71.50
2022-09-04T15:34:44.799Z,71.40
2022-09-04T15:37:22.474Z,71.80
2022-09-04T15:40:03.147Z,73.00
2022-09-04T15:42:46.269Z,74.30
2022-09-04T15:45:24.637Z,73.70
2022-09-04T15:48:17.396Z,74.20
2022-09-04T15:51:01.369Z,74.70
2022-09-04T15:53:34.144Z,74.70
2022-09-04T15:56:11.874Z,75.10
2022-09-04T15:58:53.616Z,75.80
2022-09-04T16:01:27.873Z,75.10
2022-09-04T16:04:08.208Z,75.20
2022-09-04T16:06:47.532Z,75.40
2022-09-04T16:09:30.208Z,76.50
2022-09-04T16:12:19.376Z,75.70
2022-09-04T16:14:53.545Z,76.10
2022-09-04T16:17:28.595Z,75.70
2022-09-04T16:20:05.686Z,75.00
2022-09-04T16:22:45.095Z,74.90
2022-09-04T16:25:29.384Z,76.50
2022-09-04T16:28:08.897Z,76.00
2022-09-04T16:30:42.945Z,75.70
2022-09-04T16:33:28.165Z,77.50
2022-09-04T16:36:04.003Z,77.40
2022-09-04T16:38:44.652Z,78.40
2022-09-04T16:41:19.271Z,79.30
2022-09-04T16:57:34.691Z,81.10
2022-09-04T17:00:11.118Z,85.00
2022-09-04T17:02:49.161Z,86.20
2022-09-04T17:05:28.811Z,87.30
2022-09-04T17:08:07.019Z,89.20
2022-09-04T17:10:41.844Z,90.10
2022-09-04T17:13:28.518Z,90.90
2022-09-04T17:16:04.437Z,91.80
2022-09-04T17:18:38.488Z,92.40
2022-09-04T17:23:59.443Z,93.40
2022-09-04T17:29:00.395Z,94.80
2022-09-04T17:29:08.058Z,96.60
2022-09-04T17:30:29.237Z,98.00
2022-09-04T17:36:41.763Z,99.40
2022-09-04T17:40:41.555Z,99.90
2022-09-04T17:40:49.541Z,99.90
2022-09-04T17:42:09.464Z,99.90
2022-09-04T17:44:49.077Z,99.90
2022-09-04T17:47:38.413Z,99.90
2022-09-04T17:50:14.429Z,99.90
2022-09-04T17:53:01.018Z,99.90
2022-09-04T17:55:38.919Z,99.90
2022-09-04T17:58:28.242Z,99.90
2022-09-04T18:01:14.617Z,99.90
2022-09-04T18:04:19.714Z,99.90
2022-09-04T18:06:59.667Z,99.90
2022-09-04T18:09:37.965Z,99.90
2022-09-04T18:12:19.045Z,99.90
2022-09-04T18:15:32.467Z,99.90
2022-09-04T18:18:04.232Z,99.90
2022-09-04T18:20:40.232Z,99.90
2022-09-04T18:23:29.125Z,99.90
2022-09-04T18:26:07.439Z,99.90
2022-09-04T18:28:50.039Z,99.90
2022-09-04T18:37:07.006Z,99.90
2022-09-04T18:37:11.052Z,99.90
2022-09-04T18:37:44.541Z,99.90
2022-09-04T18:40:43.090Z,99.90
2022-09-04T18:50:31.249Z,99.90
2022-09-04T18:50:45.517Z,99.90
2022-09-04T18:50:50.776Z,99.90
2022-09-04T18:52:03.678Z,99.90
2022-09-04T18:54:42.779Z,99.90
2022-09-04T18:57:26.824Z,99.90
2022-09-04T19:00:08.478Z,99.90
2022-09-04T19:02:53.335Z,99.90
2022-09-04T19:05:26.073Z,99.90
2022-09-04T19:08:00.543Z,99.90
2022-09-04T19:10:41.621Z,99.90
2022-09-04T19:13:21.755Z,99.90
2022-09-04T19:16:07.387Z,99.90
2022-09-04T19:18:50.932Z,99.90
2022-09-04T19:21:32.515Z,99.90
2022-09-04T19:24:14.364Z,99.90
2022-09-04T19:26:51.832Z,99.90
2022-09-04T19:29:30.627Z,99.90
2022-09-04T19:32:08.341Z,99.90
2022-09-04T19:34:48.708Z,99.90
2022-09-04T19:38:53.107Z,99.90
2022-09-04T19:46:01.661Z,99.90
2022-09-04T19:46:06.077Z,99.90
2022-09-04T19:46:35.361Z,99.90
2022-09-04T19:53:04.830Z,99.90
2022-09-04T19:53:33.195Z,99.90
2022-09-04T19:55:23.466Z,99.90
2022-09-04T19:58:07.539Z,99.90
2022-09-04T20:00:45.585Z,99.90
2022-09-04T20:03:30.406Z,99.90
2022-09-04T20:06:20.506Z,99.90
2022-09-04T20:09:00.806Z,99.90
2022-09-04T20:11:36.695Z,99.90
2022-09-04T20:14:16.250Z,99.90
2022-09-04T20:17:00.271Z,99.90
2022-09-04T20:19:41.174Z,99.90
2022-09-04T20:22:27.502Z,99.90
2022-09-04T20:25:10.758Z,99.90
2022-09-04T20:27:47.692Z,99.90
2022-09-04T20:30:22.826Z,99.90
2022-09-04T20:33:02.651Z,99.90
2022-09-04T20:35:41.829Z,99.90
2022-09-04T20:38:22.811Z,99.90
2022-09-04T20:40:58.692Z,99.90
2022-09-04T20:43:34.938Z,99.90
2022-09-04T20:51:06.320Z,99.90
2022-09-04T20:52:52.786Z,99.90
2022-09-04T20:53:05.977Z,99.90
2022-09-04T20:55:22.146Z,99.90
2022-09-04T21:03:08.713Z,99.90
2022-09-04T21:03:23.854Z,99.90
2022-09-04T21:04:13.175Z,99.90
2022-09-04T21:06:52.445Z,99.90
2022-09-04T21:09:54.725Z,99.90
2022-09-04T21:12:36.829Z,99.90
2022-09-04T21:15:14.561Z,99.90
2022-09-04T21:18:05.621Z,99.90
2022-09-04T21:21:07.029Z,99.90
2022-09-04T21:24:14.322Z,99.90
2022-09-04T21:27:11.453Z,99.90
2022-09-04T21:29:59.788Z,99.90
2022-09-04T21:32:49.332Z,99.90
2022-09-04T21:35:24.247Z,99.90
2022-09-04T21:38:04.167Z,99.90
2022-09-04T21:41:13.141Z,99.90
2022-09-04T21:44:14.357Z,99.90
2022-09-04T21:47:08.360Z,99.90
2022-09-04T21:50:26.473Z,99.90
2022-09-04T21:53:16.947Z,99.90
2022-09-04T22:00:00.676Z,99.90
2022-09-04T22:02:40.458Z,99.90
2022-09-04T22:02:46.085Z,99.90
2022-09-04T22:05:12.977Z,99.90
2022-09-04T22:12:36.856Z,99.90
2022-09-04T22:13:40.857Z,99.90
2022-09-04T22:13:53.765Z,99.90
2022-09-04T22:16:47.492Z,99.90
2022-09-04T22:19:34.891Z,99.90
2022-09-04T22:22:16.087Z,99.90
2022-09-04T22:25:08.095Z,99.90
2022-09-04T22:28:17.412Z,99.90
2022-09-04T22:31:05.158Z,99.90
2022-09-04T22:34:16.639Z,99.90
2022-09-04T22:37:44.844Z,99.90
2022-09-04T22:40:29.559Z,99.90
2022-09-04T22:43:14.682Z,99.90
2022-09-04T22:46:15.019Z,99.90
2022-09-04T22:49:14.084Z,99.90
2022-09-04T22:52:10.322Z,99.90
2022-09-04T22:54:57.843Z,99.90
2022-09-04T22:57:44.928Z,99.90
2022-09-04T23:00:19.014Z,99.90
2022-09-04T23:03:10.521Z,99.90
2022-09-04T23:07:23.397Z,99.90
2022-09-04T23:13:56.670Z,99.90
2022-09-04T23:14:01.605Z,99.90
2022-09-04T23:15:42.686Z,99.90
2022-09-04T23:20:35.802Z,99.90
2022-09-04T23:26:47.172Z,99.90
2022-09-04T23:26:47.563Z,99.90
2022-09-04T23:27:50.438Z,99.90
2022-09-04T23:30:25.815Z,99.90
2022-09-04T23:33:40.462Z,99.90
2022-09-04T23:36:54.462Z,99.90
2022-09-04T23:39:59.134Z,99.90
2022-09-04T23:42:51.325Z,99.90
2022-09-04T23:45:48.802Z,99.90
2022-09-04T23:48:54.557Z,99.90
2022-09-04T23:51:32.223Z,99.90
2022-09-04T23:54:30.709Z,99.90
2022-09-04T23:57:11.229Z,99.90
2022-09-04T23:59:58.426Z,99.90
